Main page
METAR-TAF:

METAR-TAF

Airports :

Hof, Germany

latitude: 50-19N, longitude: 011-53E, elevation: 567 m

Current weather observation

The report was made 7 hours and 57 minutes ago, at 17:50 UTC
Wind 3 kt from the North
Temperature 11°C
Humidity 87%
Pressure 1021 hPa
Visibility 10 km or more
Broken clouds at a height of 2300 ft
Broken clouds at a height of 3000 ft

METAR: EDQM 251750Z 36003KT 9999 BKN023 BKN030 11/09 Q1021

Time: 03:47 (01:47 UTC)

Forecast

The report was made 8 hours and 47 minutes ago, at 17:00 UTC
Forecast valid from 25 at 18 UTC to 26 at 03 UTC
Wind 5 kt from the East/Northeast
Visibility 10 km or more
Scattered clouds at a height of 3500 ft
Temporary
from 25 at 18 UTC to 25 at 20 UTC
Broken clouds at a height of 2000 ft, Towering cumulus.
rain showers
Becoming
from 25 at 20 UTC to 25 at 22 UTC
Visibility: 4000 m
mist

TAF: EDQM 251700Z 2518/2603 06005KT 9999 SCT035 TEMPO 2518/2520 SHRA BKN020TCU BECMG 2520/2522 4000 BR

Weather observations and forecasts of more than 4000 airports (METAR and TAF reports).

The available stations are represented by yellow and red dots on the map.

Hover mouse over dot to see the name of the station.

Then click to see weather observations and forecasts.

To change the map : click on the green buttons with a black cross to zoom in, on the green button with a dash to zoom out, or on the green arrows for adjacent maps.


METAR-TAF: